PVG77 KMIA-EPRZ
Flight info
| Callsign | PVG77 |
|---|---|
| Flight time | N/A |
| Altitude | 33000 |
| Route | FOLZZ3 SNAGY/M083F330 DCT ONGOT M202 KINER DCT NOVOK/M083F350 M201 CARAC DCT ALLRY/M083F360 NATT SOVED/N0468F370 DCT IBROD DCT ERSON DCT PTH DCT BALID DCT RIVOT DCT REKNA DCT PETIL DCT SURIR DCT TALSA DCT NEDIK DCT GEVNI DCT BODLA DCT EKBUT DCT ADVAB L981 ETITI |
| Aircraft | B77W/H-SDE1E2E3FGHIJ2J3J4J5M1RWXY/LB1D1 |
Departure
| Time | 2026-05-03 21:53 |
|---|---|
| Airport | Miami International Airport (KMIA) |
Arrival
| Time | N/A |
|---|---|
| Airport | Rzeszów-Jasionka Airport (EPRZ) |
| Time | Latitude | Longitude | Altitude | Speed | Heading |
|---|---|---|---|---|---|
| 2026-05-03 21:09 | 25.79406 | -80.28375 | 18 ft | 0 kts | 13° |
| 2026-05-03 21:34 | 25.79404 | -80.28376 | 18 ft | 1 kts | 13° |
| 2026-05-03 21:34 | 25.79389 | -80.28380 | 18 ft | 2 kts | 13° |
| 2026-05-03 21:34 | 25.79375 | -80.28384 | 18 ft | 2 kts | 13° |
| 2026-05-03 21:35 | 25.79360 | -80.28387 | 18 ft | 2 kts | 13° |
| 2026-05-03 21:35 | 25.79347 | -80.28391 | 18 ft | 1 kts | 13° |
| 2026-05-03 21:35 | 25.79337 | -80.28394 | 18 ft | 2 kts | 1° |
| 2026-05-03 21:35 | 25.79323 | -80.28390 | 18 ft | 2 kts | 327° |
| 2026-05-03 21:36 | 25.79312 | -80.28378 | 18 ft | 2 kts | 299° |
| 2026-05-03 21:36 | 25.79308 | -80.28363 | 18 ft | 1 kts | 270° |
| 2026-05-03 21:36 | 25.79308 | -80.28356 | 18 ft | 0 kts | 264° |
| 2026-05-03 21:41 | 25.79308 | -80.28360 | 18 ft | 1 kts | 264° |
| 2026-05-03 21:42 | 25.79305 | -80.28386 | 18 ft | 4 kts | 264° |
| 2026-05-03 21:42 | 25.79302 | -80.28419 | 18 ft | 3 kts | 265° |
| 2026-05-03 21:42 | 25.79303 | -80.28447 | 18 ft | 2 kts | 275° |
| 2026-05-03 21:42 | 25.79303 | -80.28450 | 18 ft | 0 kts | 275° |
| 2026-05-03 21:43 | 25.79303 | -80.28451 | 18 ft | 0 kts | 275° |
| 2026-05-03 21:43 | 25.79304 | -80.28458 | 18 ft | 1 kts | 275° |
| 2026-05-03 21:43 | 25.79305 | -80.28477 | 18 ft | 3 kts | 275° |
| 2026-05-03 21:43 | 25.79306 | -80.28510 | 18 ft | 5 kts | 264° |
| 2026-05-03 21:44 | 25.79302 | -80.28548 | 18 ft | 0 kts | 263° |
| 2026-05-03 21:44 | 25.79301 | -80.28550 | 18 ft | 0 kts | 259° |
| 2026-05-03 21:44 | 25.79295 | -80.28564 | 18 ft | 6 kts | 241° |
| 2026-05-03 21:45 | 25.79252 | -80.28628 | 19 ft | 11 kts | 231° |
| 2026-05-03 21:45 | 25.79238 | -80.28660 | 19 ft | 0 kts | 272° |
| 2026-05-03 21:45 | 25.79239 | -80.28671 | 20 ft | 4 kts | 275° |
| 2026-05-03 21:45 | 25.79240 | -80.28681 | 20 ft | 0 kts | 276° |
| 2026-05-03 21:46 | 25.79254 | -80.28703 | 20 ft | 7 kts | 311° |
| 2026-05-03 21:46 | 25.79295 | -80.28760 | 20 ft | 11 kts | 303° |
| 2026-05-03 21:46 | 25.79338 | -80.28833 | 21 ft | 10 kts | 303° |
| 2026-05-03 21:46 | 25.79375 | -80.28900 | 20 ft | 10 kts | 300° |
| 2026-05-03 21:47 | 25.79410 | -80.28968 | 18 ft | 10 kts | 299° |
| 2026-05-03 21:47 | 25.79444 | -80.29034 | 18 ft | 9 kts | 300° |
| 2026-05-03 21:47 | 25.79473 | -80.29090 | 18 ft | 7 kts | 300° |
| 2026-05-03 21:47 | 25.79499 | -80.29137 | 18 ft | 6 kts | 300° |
| 2026-05-03 21:48 | 25.79519 | -80.29178 | 18 ft | 5 kts | 297° |
| 2026-05-03 21:48 | 25.79536 | -80.29213 | 18 ft | 5 kts | 297° |
| 2026-05-03 21:48 | 25.79551 | -80.29243 | 18 ft | 4 kts | 300° |
| 2026-05-03 21:48 | 25.79565 | -80.29270 | 18 ft | 3 kts | 300° |
| 2026-05-03 21:49 | 25.79578 | -80.29295 | 18 ft | 5 kts | 300° |
| 2026-05-03 21:49 | 25.79609 | -80.29357 | 18 ft | 11 kts | 299° |
| 2026-05-03 21:49 | 25.79657 | -80.29451 | 18 ft | 16 kts | 300° |
| 2026-05-03 21:49 | 25.79716 | -80.29568 | 18 ft | 17 kts | 298° |
| 2026-05-03 21:50 | 25.79772 | -80.29678 | 18 ft | 15 kts | 300° |
| 2026-05-03 21:50 | 25.79822 | -80.29772 | 18 ft | 13 kts | 300° |
| 2026-05-03 21:50 | 25.79864 | -80.29854 | 18 ft | 11 kts | 300° |
| 2026-05-03 21:50 | 25.79912 | -80.29941 | 18 ft | 14 kts | 306° |
| 2026-05-03 21:51 | 25.79968 | -80.30011 | 18 ft | 6 kts | 318° |
| 2026-05-03 21:51 | 25.80001 | -80.30041 | 18 ft | 6 kts | 325° |
| 2026-05-03 21:51 | 25.80017 | -80.30053 | 18 ft | 0 kts | 327° |
| 2026-05-03 21:51 | 25.80038 | -80.30055 | 18 ft | 7 kts | 14° |
| 2026-05-03 21:52 | 25.80069 | -80.30002 | 18 ft | 9 kts | 81° |
| 2026-05-03 21:52 | 25.80086 | -80.29814 | 18 ft | 52 kts | 88° |
| 2026-05-03 21:52 | 25.80114 | -80.29104 | 18 ft | 130 kts | 86° |
| 2026-05-03 21:52 | 25.80158 | -80.27849 | 38 ft | 194 kts | 88° |
| 2026-05-03 21:53 | 25.80182 | -80.26201 | 425 ft | 226 kts | 91° |
| 2026-05-03 21:53 | 25.79879 | -80.24474 | 1484 ft | 232 kts | 109° |
| 2026-05-03 21:53 | 25.79218 | -80.22866 | 2179 ft | 238 kts | 116° |
| 2026-05-03 21:53 | 25.78399 | -80.21198 | 2624 ft | 257 kts | 118° |
| 2026-05-03 21:54 | 25.77518 | -80.19447 | 3212 ft | 269 kts | 119° |
| 2026-05-03 21:54 | 25.76598 | -80.17609 | 3998 ft | 273 kts | 119° |
| 2026-05-03 21:54 | 25.75693 | -80.15780 | 4783 ft | 277 kts | 120° |
| 2026-05-03 21:54 | 25.74766 | -80.13872 | 5472 ft | 283 kts | 115° |
| 2026-05-03 21:55 | 25.74284 | -80.11756 | 5660 ft | 289 kts | 91° |
| 2026-05-03 21:55 | 25.74660 | -80.09576 | 5594 ft | 287 kts | 63° |
| 2026-05-03 21:55 | 25.75827 | -80.07790 | 5781 ft | 293 kts | 45° |
| 2026-05-03 21:55 | 25.77235 | -80.06156 | 6510 ft | 297 kts | 45° |
| 2026-05-03 21:56 | 25.78642 | -80.04457 | 6902 ft | 296 kts | 47° |
| 2026-05-03 21:56 | 25.80003 | -80.02756 | 6963 ft | 295 kts | 47° |
| 2026-05-03 21:56 | 25.81351 | -80.01050 | 6972 ft | 295 kts | 47° |
| 2026-05-03 21:56 | 25.82709 | -79.99326 | 6970 ft | 295 kts | 47° |
| 2026-05-03 21:57 | 25.84069 | -79.97600 | 6969 ft | 295 kts | 47° |
| 2026-05-03 21:57 | 25.85413 | -79.95892 | 6972 ft | 295 kts | 47° |
| 2026-05-03 21:57 | 25.86763 | -79.94176 | 6971 ft | 294 kts | 47° |
| 2026-05-03 21:57 | 25.88107 | -79.92467 | 6973 ft | 295 kts | 47° |
| 2026-05-03 21:58 | 25.89451 | -79.90757 | 6986 ft | 294 kts | 47° |
| 2026-05-03 21:58 | 25.90805 | -79.89033 | 6947 ft | 293 kts | 47° |
| 2026-05-03 21:58 | 25.92146 | -79.87327 | 6966 ft | 294 kts | 47° |
| 2026-05-03 21:58 | 25.93490 | -79.85616 | 6987 ft | 295 kts | 47° |
| 2026-05-03 21:59 | 25.94832 | -79.83905 | 6993 ft | 296 kts | 47° |
| 2026-05-03 21:59 | 25.96214 | -79.82145 | 7487 ft | 304 kts | 47° |
| 2026-05-03 21:59 | 25.97579 | -79.80403 | 8376 ft | 301 kts | 47° |
| 2026-05-03 21:59 | 25.98961 | -79.78642 | 9056 ft | 306 kts | 47° |
| 2026-05-03 22:00 | 26.00361 | -79.76855 | 9715 ft | 311 kts | 47° |
| 2026-05-03 22:00 | 26.01802 | -79.75016 | 10373 ft | 317 kts | 47° |
| 2026-05-03 22:00 | 26.03287 | -79.73122 | 10730 ft | 334 kts | 47° |
| 2026-05-03 22:00 | 26.04844 | -79.71134 | 11102 ft | 351 kts | 47° |
| 2026-05-03 22:01 | 26.06482 | -79.69041 | 11530 ft | 366 kts | 47° |
| 2026-05-03 22:01 | 26.08185 | -79.66863 | 11907 ft | 382 kts | 47° |
| 2026-05-03 22:01 | 26.09959 | -79.64593 | 12324 ft | 397 kts | 48° |
| 2026-05-03 22:01 | 26.11664 | -79.62114 | 12803 ft | 410 kts | 53° |
| 2026-05-03 22:02 | 26.13321 | -79.59507 | 13440 ft | 417 kts | 54° |
| 2026-05-03 22:02 | 26.14987 | -79.56879 | 14162 ft | 421 kts | 53° |
| 2026-05-03 22:02 | 26.16675 | -79.54216 | 14870 ft | 425 kts | 53° |
| 2026-05-03 22:02 | 26.18388 | -79.51513 | 15518 ft | 432 kts | 53° |
| 2026-05-03 22:03 | 26.20133 | -79.48760 | 15907 ft | 439 kts | 53° |
| 2026-05-03 22:03 | 26.21896 | -79.45977 | 15971 ft | 439 kts | 53° |
| 2026-05-03 22:03 | 26.23654 | -79.43200 | 15968 ft | 438 kts | 53° |
| 2026-05-03 22:03 | 26.25419 | -79.40411 | 16041 ft | 443 kts | 53° |
| 2026-05-03 22:04 | 26.27229 | -79.37587 | 16568 ft | 450 kts | 50° |
| 2026-05-03 22:04 | 26.29308 | -79.35059 | 17406 ft | 445 kts | 39° |
| 2026-05-03 22:04 | 26.31718 | -79.32934 | 18057 ft | 445 kts | 31° |
| 2026-05-03 22:04 | 26.34335 | -79.31033 | 18610 ft | 450 kts | 29° |
| 2026-05-03 22:05 | 26.36994 | -79.29143 | 19170 ft | 455 kts | 29° |
| 2026-05-03 22:05 | 26.39673 | -79.27237 | 19772 ft | 459 kts | 29° |
| 2026-05-03 22:05 | 26.42383 | -79.25309 | 20349 ft | 464 kts | 29° |
| 2026-05-03 22:05 | 26.45089 | -79.23380 | 20889 ft | 469 kts | 29° |
| 2026-05-03 22:06 | 26.47875 | -79.21394 | 21427 ft | 474 kts | 29° |
| 2026-05-03 22:06 | 26.50652 | -79.19413 | 21932 ft | 479 kts | 28° |
| 2026-05-03 22:06 | 26.53475 | -79.17397 | 22382 ft | 485 kts | 29° |
| 2026-05-03 22:06 | 26.56334 | -79.15353 | 22918 ft | 488 kts | 28° |
| 2026-05-03 22:07 | 26.59207 | -79.13300 | 23478 ft | 491 kts | 28° |
| 2026-05-03 22:07 | 26.62059 | -79.11258 | 23975 ft | 495 kts | 28° |
| 2026-05-03 22:07 | 26.64984 | -79.09164 | 24462 ft | 500 kts | 28° |
| 2026-05-03 22:07 | 26.67934 | -79.07051 | 24939 ft | 504 kts | 28° |
| 2026-05-03 22:08 | 26.70909 | -79.04918 | 25414 ft | 508 kts | 29° |
| 2026-05-03 22:08 | 26.73872 | -79.02792 | 25888 ft | 511 kts | 28° |
| 2026-05-03 22:08 | 26.76878 | -79.00634 | 26386 ft | 513 kts | 28° |
| 2026-05-03 22:08 | 26.79859 | -78.98493 | 26789 ft | 518 kts | 28° |
| 2026-05-03 22:09 | 26.82924 | -78.96291 | 27172 ft | 523 kts | 28° |
| 2026-05-03 22:09 | 26.85980 | -78.94093 | 27571 ft | 527 kts | 29° |
| 2026-05-03 22:09 | 26.89105 | -78.91844 | 28028 ft | 530 kts | 29° |
| 2026-05-03 22:10 | 26.95323 | -78.87363 | 28948 ft | 535 kts | 29° |
| 2026-05-03 22:10 | 26.98457 | -78.85103 | 29421 ft | 538 kts | 28° |
| 2026-05-03 22:10 | 27.01583 | -78.82847 | 29949 ft | 538 kts | 29° |
| 2026-05-03 22:10 | 27.04725 | -78.80577 | 30499 ft | 538 kts | 29° |
| 2026-05-03 22:11 | 27.07889 | -78.78291 | 31059 ft | 537 kts | 29° |
| 2026-05-03 22:11 | 27.10941 | -78.76083 | 31587 ft | 537 kts | 28° |
| 2026-05-03 22:11 | 27.13974 | -78.73888 | 31950 ft | 539 kts | 29° |
| 2026-05-03 22:11 | 27.16981 | -78.71712 | 32243 ft | 542 kts | 29° |
| 2026-05-03 22:12 | 27.20041 | -78.69495 | 32596 ft | 543 kts | 29° |
| 2026-05-03 22:12 | 27.23214 | -78.67194 | 32985 ft | 544 kts | 29° |
| 2026-05-03 22:12 | 27.26414 | -78.64874 | 33023 ft | 547 kts | 28° |
| 2026-05-03 22:13 | 27.32633 | -78.60311 | 33024 ft | 542 kts | 29° |
| 2026-05-03 22:13 | 27.38726 | -78.55776 | 33037 ft | 545 kts | 29° |
| 2026-05-03 22:14 | 27.44842 | -78.51220 | 33035 ft | 545 kts | 29° |
| 2026-05-03 22:14 | 27.51156 | -78.46512 | 33043 ft | 547 kts | 28° |
| 2026-05-03 22:15 | 27.57507 | -78.41771 | 33039 ft | 547 kts | 29° |
| 2026-05-03 22:15 | 27.63889 | -78.37003 | 33053 ft | 552 kts | 29° |
| 2026-05-03 22:16 | 27.70249 | -78.32242 | 33034 ft | 551 kts | 29° |
| 2026-05-03 22:16 | 27.76654 | -78.27441 | 33040 ft | 552 kts | 29° |
| 2026-05-03 22:17 | 27.83031 | -78.22656 | 33043 ft | 551 kts | 28° |
| 2026-05-03 22:17 | 27.89410 | -78.17863 | 33044 ft | 554 kts | 29° |
| 2026-05-03 22:18 | 27.95836 | -78.13026 | 33052 ft | 553 kts | 28° |
| 2026-05-03 22:18 | 28.02220 | -78.08214 | 33054 ft | 552 kts | 29° |
| 2026-05-03 22:19 | 28.08600 | -78.03398 | 33057 ft | 553 kts | 28° |
| 2026-05-03 22:19 | 28.15003 | -77.98559 | 33048 ft | 554 kts | 28° |
| 2026-05-03 22:20 | 28.21455 | -77.93675 | 33048 ft | 554 kts | 28° |
| 2026-05-03 22:20 | 28.27837 | -77.88837 | 33055 ft | 556 kts | 28° |
| 2026-05-03 22:21 | 28.34268 | -77.83955 | 33056 ft | 557 kts | 28° |
| 2026-05-03 22:21 | 28.40714 | -77.79054 | 33046 ft | 559 kts | 28° |
| 2026-05-03 22:22 | 28.47167 | -77.74141 | 33049 ft | 562 kts | 28° |
| 2026-05-03 22:22 | 28.53653 | -77.69194 | 33068 ft | 562 kts | 28° |
| 2026-05-03 22:23 | 28.60196 | -77.64197 | 33071 ft | 566 kts | 27° |
| 2026-05-03 22:23 | 28.66676 | -77.59239 | 33075 ft | 564 kts | 28° |
| 2026-05-03 22:24 | 28.73206 | -77.54237 | 33079 ft | 565 kts | 27° |
| 2026-05-03 22:24 | 28.79740 | -77.49224 | 33081 ft | 569 kts | 28° |
| 2026-05-03 22:25 | 28.86245 | -77.44224 | 33083 ft | 565 kts | 28° |
| 2026-05-03 22:25 | 28.92799 | -77.39180 | 33086 ft | 566 kts | 28° |
| 2026-05-03 22:26 | 28.99290 | -77.34176 | 33081 ft | 565 kts | 28° |
| 2026-05-03 22:26 | 29.05827 | -77.29130 | 33070 ft | 567 kts | 28° |
| 2026-05-03 22:27 | 29.12355 | -77.24083 | 33063 ft | 568 kts | 28° |
| 2026-05-03 22:27 | 29.18879 | -77.19029 | 33069 ft | 568 kts | 28° |
| 2026-05-03 22:28 | 29.25452 | -77.13931 | 33073 ft | 567 kts | 28° |
| 2026-05-03 22:28 | 29.31939 | -77.08891 | 33073 ft | 568 kts | 28° |
| 2026-05-03 22:29 | 29.38474 | -77.03808 | 33085 ft | 569 kts | 28° |
| 2026-05-03 22:29 | 29.44996 | -76.98723 | 33079 ft | 566 kts | 28° |
| 2026-05-03 22:30 | 29.51540 | -76.93616 | 33081 ft | 567 kts | 28° |
| 2026-05-03 22:30 | 29.58023 | -76.88547 | 33092 ft | 565 kts | 28° |
| 2026-05-03 22:31 | 29.64263 | -76.82983 | 33094 ft | 572 kts | 35° |
| 2026-05-03 22:31 | 29.70312 | -76.77057 | 33091 ft | 573 kts | 36° |
| 2026-05-03 22:32 | 29.76364 | -76.71111 | 33096 ft | 568 kts | 35° |
| 2026-05-03 22:32 | 29.82388 | -76.65189 | 33099 ft | 573 kts | 34° |
| 2026-05-03 22:33 | 29.88400 | -76.59267 | 33105 ft | 569 kts | 35° |
| 2026-05-03 22:33 | 29.94429 | -76.53321 | 33105 ft | 571 kts | 34° |
| 2026-05-03 22:34 | 30.00449 | -76.47375 | 33113 ft | 572 kts | 35° |
| 2026-05-03 22:34 | 30.06501 | -76.41385 | 33119 ft | 572 kts | 35° |
| 2026-05-03 22:35 | 30.12497 | -76.35442 | 33110 ft | 570 kts | 35° |
| 2026-05-03 22:35 | 30.18520 | -76.29463 | 33086 ft | 574 kts | 36° |
| 2026-05-03 22:36 | 30.24538 | -76.23477 | 33086 ft | 570 kts | 35° |
| 2026-05-03 22:36 | 30.30544 | -76.17493 | 33090 ft | 570 kts | 35° |
| 2026-05-03 22:37 | 30.36526 | -76.11525 | 33098 ft | 569 kts | 36° |
| 2026-05-03 22:37 | 30.42540 | -76.05514 | 33098 ft | 568 kts | 36° |
| 2026-05-03 22:38 | 30.48501 | -75.99546 | 33097 ft | 568 kts | 36° |
| 2026-05-03 22:38 | 30.54501 | -75.93532 | 33105 ft | 572 kts | 35° |
| 2026-05-03 22:39 | 30.60462 | -75.87541 | 33106 ft | 567 kts | 35° |
| 2026-05-03 22:39 | 30.66466 | -75.81500 | 33113 ft | 572 kts | 35° |
| 2026-05-03 22:40 | 30.72438 | -75.75479 | 33107 ft | 567 kts | 35° |
| 2026-05-03 22:40 | 30.78383 | -75.69477 | 33110 ft | 568 kts | 35° |
| 2026-05-03 22:41 | 30.84313 | -75.63478 | 33119 ft | 566 kts | 35° |
| 2026-05-03 22:41 | 30.90268 | -75.57447 | 33119 ft | 567 kts | 36° |
| 2026-05-03 22:42 | 30.96184 | -75.51442 | 33114 ft | 565 kts | 36° |
| 2026-05-03 22:42 | 31.02125 | -75.45402 | 33138 ft | 566 kts | 35° |
| 2026-05-03 22:43 | 31.08007 | -75.39411 | 33113 ft | 563 kts | 35° |
| 2026-05-03 22:43 | 31.13951 | -75.33350 | 33099 ft | 565 kts | 36° |
| 2026-05-03 22:44 | 31.19817 | -75.27354 | 33095 ft | 563 kts | 36° |
| 2026-05-03 22:44 | 31.25710 | -75.21323 | 33116 ft | 565 kts | 36° |
| 2026-05-03 22:45 | 31.31630 | -75.15253 | 33102 ft | 565 kts | 36° |
| 2026-05-03 22:45 | 31.37523 | -75.09198 | 33115 ft | 564 kts | 36° |
| 2026-05-03 22:46 | 31.43416 | -75.03136 | 33129 ft | 565 kts | 36° |
| 2026-05-03 22:46 | 31.49304 | -74.97066 | 33138 ft | 563 kts | 36° |
| 2026-05-03 22:47 | 31.55179 | -74.91000 | 33134 ft | 563 kts | 36° |
| 2026-05-03 22:47 | 31.61029 | -74.84950 | 33137 ft | 564 kts | 36° |
| 2026-05-03 22:48 | 31.66902 | -74.78863 | 33129 ft | 562 kts | 35° |
| 2026-05-03 22:48 | 31.72773 | -74.72770 | 33137 ft | 566 kts | 36° |
| 2026-05-03 22:49 | 31.78675 | -74.66632 | 33127 ft | 564 kts | 36° |
| 2026-05-03 22:49 | 31.84514 | -74.60550 | 33144 ft | 565 kts | 36° |
| 2026-05-03 22:50 | 31.90391 | -74.54417 | 33141 ft | 563 kts | 36° |
| 2026-05-03 22:50 | 31.96257 | -74.48286 | 33140 ft | 565 kts | 36° |
| 2026-05-03 22:51 | 32.02085 | -74.42180 | 33140 ft | 562 kts | 36° |
| 2026-05-03 22:51 | 32.07964 | -74.36015 | 33143 ft | 566 kts | 35° |
| 2026-05-03 22:52 | 32.13842 | -74.29837 | 33101 ft | 565 kts | 37° |
| 2026-05-03 22:52 | 32.19655 | -74.23714 | 33113 ft | 562 kts | 36° |
| 2026-05-03 22:53 | 32.25510 | -74.17540 | 33109 ft | 564 kts | 36° |
| 2026-05-03 22:53 | 32.31344 | -74.11374 | 33107 ft | 561 kts | 36° |
| 2026-05-03 22:54 | 32.37198 | -74.05180 | 33113 ft | 565 kts | 36° |
| 2026-05-03 22:54 | 32.43000 | -73.99026 | 33112 ft | 565 kts | 36° |
| 2026-05-03 22:55 | 32.48856 | -73.92805 | 33125 ft | 565 kts | 36° |
| 2026-05-03 22:55 | 32.54716 | -73.86568 | 33120 ft | 567 kts | 36° |
| 2026-05-03 22:56 | 32.60533 | -73.80365 | 33127 ft | 565 kts | 36° |
| 2026-05-03 22:56 | 32.66395 | -73.74103 | 33125 ft | 566 kts | 36° |
| 2026-05-03 22:57 | 32.72235 | -73.67852 | 33122 ft | 565 kts | 36° |
| 2026-05-03 22:57 | 32.78045 | -73.61624 | 33121 ft | 565 kts | 36° |
| 2026-05-03 22:58 | 32.83869 | -73.55368 | 33125 ft | 565 kts | 36° |
| 2026-05-03 22:58 | 32.89734 | -73.49057 | 33131 ft | 568 kts | 36° |
| 2026-05-03 22:59 | 32.95576 | -73.42757 | 33133 ft | 567 kts | 36° |
| 2026-05-03 22:59 | 33.01440 | -73.36425 | 33129 ft | 568 kts | 36° |
| 2026-05-03 23:00 | 33.07254 | -73.30131 | 33112 ft | 568 kts | 36° |
| 2026-05-03 23:00 | 33.13059 | -73.23838 | 33100 ft | 567 kts | 37° |
| 2026-05-03 23:01 | 33.18932 | -73.17460 | 33102 ft | 569 kts | 37° |
| 2026-05-03 23:01 | 33.24772 | -73.11102 | 33105 ft | 568 kts | 36° |
| 2026-05-03 23:02 | 33.30600 | -73.04748 | 33105 ft | 567 kts | 37° |
| 2026-05-03 23:02 | 33.36433 | -72.98377 | 33112 ft | 570 kts | 36° |
| 2026-05-03 23:03 | 33.42270 | -72.91988 | 33111 ft | 570 kts | 37° |
| 2026-05-03 23:03 | 33.48105 | -72.85590 | 33110 ft | 571 kts | 37° |
| 2026-05-03 23:04 | 33.53953 | -72.79165 | 33115 ft | 573 kts | 36° |
| 2026-05-03 23:04 | 33.59837 | -72.72687 | 33121 ft | 573 kts | 36° |
| 2026-05-03 23:05 | 33.65694 | -72.66226 | 33126 ft | 573 kts | 36° |
| 2026-05-03 23:05 | 33.71541 | -72.59765 | 33118 ft | 573 kts | 36° |
| 2026-05-03 23:06 | 33.77425 | -72.53249 | 33120 ft | 572 kts | 36° |
| 2026-05-03 23:06 | 33.83256 | -72.46782 | 33123 ft | 574 kts | 36° |
| 2026-05-03 23:07 | 33.89132 | -72.40252 | 33133 ft | 580 kts | 36° |
| 2026-05-03 23:07 | 33.95031 | -72.33679 | 33118 ft | 572 kts | 36° |
| 2026-05-03 23:08 | 34.00538 | -72.26619 | 33110 ft | 584 kts | 45° |
| 2026-05-03 23:08 | 34.05700 | -72.19102 | 33115 ft | 583 kts | 46° |
| 2026-05-03 23:09 | 34.10874 | -72.11520 | 33105 ft | 586 kts | 45° |
| 2026-05-03 23:09 | 34.16005 | -72.03976 | 33106 ft | 584 kts | 46° |
| 2026-05-03 23:10 | 34.21168 | -71.96366 | 33108 ft | 586 kts | 46° |
| 2026-05-03 23:10 | 34.26302 | -71.88778 | 33110 ft | 584 kts | 46° |
| 2026-05-03 23:11 | 34.31484 | -71.81101 | 33113 ft | 585 kts | 45° |
| 2026-05-03 23:11 | 34.36588 | -71.73521 | 33113 ft | 583 kts | 45° |
| 2026-05-03 23:12 | 34.41756 | -71.65835 | 33117 ft | 587 kts | 46° |
| 2026-05-03 23:12 | 34.46876 | -71.58197 | 33115 ft | 583 kts | 46° |
| 2026-05-03 23:13 | 34.51997 | -71.50545 | 33118 ft | 588 kts | 45° |
| 2026-05-03 23:13 | 34.57128 | -71.42860 | 33119 ft | 586 kts | 45° |
| 2026-05-03 23:14 | 34.62210 | -71.35232 | 33121 ft | 585 kts | 46° |
| 2026-05-03 23:14 | 34.67332 | -71.27528 | 33094 ft | 587 kts | 46° |
| 2026-05-03 23:15 | 34.72458 | -71.19798 | 33092 ft | 587 kts | 46° |
| 2026-05-03 23:15 | 34.77519 | -71.12148 | 33096 ft | 587 kts | 46° |
| 2026-05-03 23:16 | 34.82650 | -71.04380 | 33092 ft | 589 kts | 46° |
| 2026-05-03 23:16 | 34.87766 | -70.96614 | 33098 ft | 590 kts | 45° |
| 2026-05-03 23:17 | 34.92898 | -70.88808 | 33100 ft | 592 kts | 46° |
| 2026-05-03 23:17 | 34.97989 | -70.81046 | 33100 ft | 591 kts | 46° |
| 2026-05-03 23:18 | 35.03102 | -70.73231 | 33108 ft | 590 kts | 46° |
| 2026-05-03 23:18 | 35.08209 | -70.65413 | 33100 ft | 592 kts | 46° |